Time;durP1;ratioP1;P1;durP2;ratioP2;P2;SDS_P1;SDS_P2;PMS_P1;PMS_P2;Temp;Humidity;BMP_temperature;BMP_pressure;BME280_temperature;BME280_humidity;BME280_pressure;Samples;Min_cycle;Max_cycle;Signal;HPM_P1;HPM_P2
2023/08/03 00:01:26;;;;;;;11.80;4.90;;;;;;;20.39;72.71;100395.67;107590;1254;107808;-70
2023/08/03 00:03:57;;;;;;;8.70;5.00;;;;;;;20.38;72.81;100393.57;107593;1253;97873;-66
2023/08/03 00:06:25;;;;;;;30.10;5.10;;;;;;;20.37;72.75;100392.73;107553;1251;97780;-67
2023/08/03 00:08:54;;;;;;;14.40;5.90;;;;;;;20.34;72.48;100393.73;107529;1254;111181;-68
2023/08/03 00:11:22;;;;;;;10.70;5.20;;;;;;;20.33;72.67;100396.98;107509;1251;110032;-66
2023/08/03 00:13:51;;;;;;;9.40;5.20;;;;;;;20.29;73.11;100394.41;107555;1251;108248;-68
2023/08/03 00:16:19;;;;;;;14.10;5.10;;;;;;;20.25;72.83;100395.33;107497;1251;97809;-67
2023/08/03 00:18:48;;;;;;;12.60;4.90;;;;;;;20.23;72.74;100397.09;107540;1251;97786;-67
2023/08/03 00:21:16;;;;;;;9.70;5.10;;;;;;;20.20;72.52;100392.18;107529;1250;110939;-67
2023/08/03 00:23:45;;;;;;;12.40;5.10;;;;;;;20.17;72.71;100392.42;107480;1251;109476;-67
2023/08/03 00:26:15;;;;;;;10.90;4.50;;;;;;;20.15;72.72;100392.69;107478;1251;107950;-68
2023/08/03 00:28:46;;;;;;;10.80;5.10;;;;;;;20.12;72.48;100397.89;107501;1251;97832;-66
2023/08/03 00:31:14;;;;;;;17.50;5.40;;;;;;;20.07;72.47;100395.19;107486;1254;97802;-69
2023/08/03 00:33:43;;;;;;;10.50;5.40;;;;;;;20.03;72.42;100397.25;107569;1251;111573;-70
2023/08/03 00:36:13;;;;;;;11.60;5.40;;;;;;;19.99;72.50;100395.39;107574;1253;109423;-67
2023/08/03 00:38:44;;;;;;;16.20;5.70;;;;;;;19.95;72.76;100395.50;107562;1255;108062;-67
2023/08/03 00:41:12;;;;;;;12.90;4.90;;;;;;;19.89;72.62;100402.05;107514;1251;97937;-66
2023/08/03 00:43:41;;;;;;;11.00;4.90;;;;;;;19.84;72.75;100407.61;107510;1251;97963;-67
2023/08/03 00:46:09;;;;;;;8.60;4.80;;;;;;;19.80;72.82;100411.91;107524;1251;111852;-67
2023/08/03 00:48:38;;;;;;;8.50;6.00;;;;;;;19.76;73.00;100415.05;107525;1254;110024;-66
2023/08/03 00:51:07;;;;;;;16.80;5.20;;;;;;;19.71;73.12;100417.60;107563;1251;108151;-66
2023/08/03 00:53:35;;;;;;;11.30;4.90;;;;;;;19.69;73.34;100419.85;107650;1255;97902;-66
2023/08/03 00:56:03;;;;;;;19.00;5.30;;;;;;;19.68;73.57;100420.86;107582;1250;97697;-66
2023/08/03 00:58:33;;;;;;;11.60;4.70;;;;;;;19.68;73.93;100419.86;107602;1252;111550;-69
2023/08/03 01:01:05;;;;;;;10.40;4.60;;;;;;;19.68;74.04;100418.60;107603;1251;109036;-68
2023/08/03 01:03:33;;;;;;;15.90;5.20;;;;;;;19.67;74.00;100423.42;107554;1250;108717;-69
2023/08/03 01:06:02;;;;;;;8.90;5.30;;;;;;;19.66;74.12;100420.91;107535;1250;97861;-69
2023/08/03 01:08:31;;;;;;;9.30;5.00;;;;;;;19.59;74.36;100422.88;107497;1253;97719;-69
2023/08/03 01:10:59;;;;;;;15.30;5.30;;;;;;;19.51;74.03;100424.50;107567;1253;111999;-67
2023/08/03 01:13:28;;;;;;;19.40;5.60;;;;;;;19.47;74.11;100427.25;107546;1254;109280;-68
2023/08/03 01:16:00;;;;;;;14.10;5.80;;;;;;;19.47;74.73;100424.48;107544;1251;108480;-67
2023/08/03 01:18:28;;;;;;;11.80;5.50;;;;;;;19.48;74.66;100423.85;107517;1254;97949;-67
2023/08/03 01:20:58;;;;;;;10.20;5.10;;;;;;;19.47;74.62;100426.61;107548;1251;98370;-67
2023/08/03 01:23:29;;;;;;;16.50;5.10;;;;;;;19.43;74.41;100427.73;107660;1250;112324;-67
2023/08/03 01:25:57;;;;;;;13.30;5.20;;;;;;;19.40;74.29;100430.67;107547;1251;109803;-66
2023/08/03 01:28:26;;;;;;;14.70;5.40;;;;;;;19.36;74.45;100431.61;107557;1251;108584;-67
2023/08/03 01:30:55;;;;;;;13.60;5.50;;;;;;;19.34;74.51;100430.13;107591;1256;99089;-67
2023/08/03 01:33:24;;;;;;;19.70;5.50;;;;;;;19.30;74.63;100433.88;107582;1251;97875;-68
2023/08/03 01:35:52;;;;;;;9.80;5.40;;;;;;;19.27;74.57;100435.88;107463;1251;112727;-68
2023/08/03 01:38:21;;;;;;;11.80;5.30;;;;;;;19.22;74.62;100438.45;107592;1251;109880;-68
2023/08/03 01:40:53;;;;;;;11.00;4.80;;;;;;;19.17;75.08;100438.60;107554;1254;107995;-67
2023/08/03 01:43:22;;;;;;;7.80;5.30;;;;;;;19.11;75.32;100434.91;107535;1253;97934;-66
2023/08/03 01:45:56;;;;;;;8.60;5.50;;;;;;;19.07;76.08;100434.94;107486;1252;98506;-72
2023/08/03 01:48:25;;;;;;;12.60;5.90;;;;;;;18.99;75.99;100440.30;107423;1252;111958;-70
2023/08/03 01:50:54;;;;;;;11.20;5.50;;;;;;;18.96;76.12;100444.30;107524;1252;109625;-67
2023/08/03 01:53:22;;;;;;;10.60;5.00;;;;;;;18.93;76.12;100446.74;107565;1251;107973;-67
2023/08/03 01:55:50;;;;;;;9.50;5.30;;;;;;;18.90;76.20;100446.50;107540;1251;97800;-66
2023/08/03 01:58:19;;;;;;;14.60;5.60;;;;;;;18.89;76.43;100442.00;107573;1251;97676;-68
2023/08/03 02:00:48;;;;;;;14.10;6.20;;;;;;;18.86;76.70;100444.55;107582;1254;112135;-68
2023/08/03 02:03:17;;;;;;;8.90;5.60;;;;;;;18.81;76.42;100441.41;107591;1253;110017;-67
2023/08/03 02:05:46;;;;;;;13.20;6.00;;;;;;;18.79;76.59;100436.52;107559;1251;107654;-67
2023/08/03 02:08:14;;;;;;;11.10;5.10;;;;;;;18.78;76.59;100435.55;107574;1254;97954;-66
2023/08/03 02:10:42;;;;;;;11.50;4.90;;;;;;;18.75;76.89;100433.57;107560;1253;97850;-67
2023/08/03 02:13:10;;;;;;;12.80;4.70;;;;;;;18.70;76.88;100438.09;107627;1255;112087;-68
2023/08/03 02:15:40;;;;;;;10.50;4.80;;;;;;;18.67;76.91;100443.36;107622;1251;109837;-70
2023/08/03 02:18:09;;;;;;;10.40;5.10;;;;;;;18.67;77.17;100444.80;107609;1251;107059;-67
2023/08/03 02:20:37;;;;;;;15.10;5.60;;;;;;;18.66;77.11;100443.14;107625;1251;97822;-66
2023/08/03 02:23:06;;;;;;;12.90;6.00;;;;;;;18.62;77.10;100436.66;107581;1254;97819;-67
2023/08/03 02:25:35;;;;;;;16.50;5.70;;;;;;;18.62;77.25;100443.27;107581;1253;112197;-70
2023/08/03 02:28:04;;;;;;;18.50;5.60;;;;;;;18.61;77.30;100445.87;107568;1253;110646;-68
2023/08/03 02:30:32;;;;;;;19.60;5.60;;;;;;;18.62;77.51;100448.84;107578;1251;108116;-66
2023/08/03 02:33:01;;;;;;;14.40;6.00;;;;;;;18.64;77.36;100450.13;107580;1256;98020;-67
2023/08/03 02:35:29;;;;;;;14.20;6.10;;;;;;;18.62;77.27;100450.52;107581;1253;98905;-66
2023/08/03 02:38:00;;;;;;;10.10;5.60;;;;;;;18.58;77.35;100447.77;107577;1253;110657;-66
2023/08/03 02:40:30;;;;;;;17.30;6.00;;;;;;;18.54;77.28;100449.50;107581;1253;108775;-67
2023/08/03 02:42:58;;;;;;;9.40;5.80;;;;;;;18.53;77.39;100446.79;107577;1253;107600;-66
2023/08/03 02:45:28;;;;;;;20.50;6.00;;;;;;;18.55;77.58;100447.79;107551;1253;97848;-66
2023/08/03 02:47:57;;;;;;;13.30;5.80;;;;;;;18.54;77.57;100451.48;107628;1254;97825;-67
2023/08/03 02:50:26;;;;;;;13.20;6.70;;;;;;;18.53;77.52;100450.95;107561;1254;111159;-66
2023/08/03 02:52:58;;;;;;;10.20;5.90;;;;;;;18.52;77.81;100453.00;107606;1253;110251;-68
2023/08/03 02:55:27;;;;;;;11.40;6.00;;;;;;;18.53;77.97;100455.89;107494;1256;108151;-66
2023/08/03 02:57:56;;;;;;;18.40;5.50;;;;;;;18.53;78.37;100456.48;107581;1253;97801;-67
2023/08/03 03:00:25;;;;;;;10.60;5.80;;;;;;;18.55;78.16;100458.61;107609;1253;97915;-66
2023/08/03 03:02:54;;;;;;;17.00;5.80;;;;;;;18.56;77.93;100460.50;107591;1255;111293;-66
2023/08/03 03:05:23;;;;;;;8.30;5.40;;;;;;;18.56;78.11;100464.68;107611;1254;108063;-67
2023/08/03 03:07:51;;;;;;;19.30;5.60;;;;;;;18.50;78.93;100467.10;107566;1252;107312;-67
2023/08/03 03:10:19;;;;;;;13.10;5.10;;;;;;;18.43;78.26;100468.64;107556;1253;97833;-66
2023/08/03 03:12:48;;;;;;;11.20;5.90;;;;;;;18.42;78.26;100462.59;107543;1255;97848;-68
2023/08/03 03:15:17;;;;;;;17.00;5.70;;;;;;;18.44;78.41;100463.69;107479;1253;112125;-67
2023/08/03 03:17:47;;;;;;;18.00;5.80;;;;;;;18.46;78.58;100468.55;107520;1254;109699;-67
2023/08/03 03:20:15;;;;;;;8.80;5.50;;;;;;;18.44;78.74;100470.33;107585;1252;108103;-68
2023/08/03 03:22:44;;;;;;;11.30;6.30;;;;;;;18.40;78.59;100469.86;107599;1254;97909;-67
2023/08/03 03:25:12;;;;;;;16.20;7.70;;;;;;;18.36;78.51;100469.40;107581;1256;97841;-67
2023/08/03 03:27:40;;;;;;;9.10;6.90;;;;;;;18.35;78.74;100468.98;107590;1254;111996;-68
2023/08/03 03:30:09;;;;;;;13.20;5.40;;;;;;;18.37;78.86;100468.80;107569;1255;109844;-65
2023/08/03 03:32:38;;;;;;;8.60;5.30;;;;;;;18.39;78.82;100472.11;107595;1254;107553;-68
2023/08/03 03:35:07;;;;;;;27.90;5.30;;;;;;;18.41;78.88;100472.26;107581;1251;98213;-66
2023/08/03 03:37:36;;;;;;;13.40;5.40;;;;;;;18.41;78.66;100472.20;107676;1251;97727;-69
2023/08/03 03:40:06;;;;;;;21.20;5.40;;;;;;;18.41;79.74;100469.41;107535;1251;111229;-66
2023/08/03 03:42:37;;;;;;;9.30;5.70;;;;;;;18.40;79.39;100471.63;107667;1251;109912;-68
2023/08/03 03:45:07;;;;;;;11.70;5.80;;;;;;;18.42;79.50;100470.60;107514;1251;107250;-68
2023/08/03 03:47:36;;;;;;;15.80;5.60;;;;;;;18.46;79.48;100467.69;107579;1251;97810;-68
2023/08/03 03:50:06;;;;;;;15.70;5.90;;;;;;;18.52;79.47;100472.31;107649;1251;97720;-67
2023/08/03 03:52:35;;;;;;;17.10;6.30;;;;;;;18.56;79.46;100472.65;107641;1251;110432;-66
2023/08/03 03:55:05;;;;;;;20.50;6.80;;;;;;;18.61;79.49;100477.17;107571;1253;109344;-67
2023/08/03 03:57:33;;;;;;;13.90;7.20;;;;;;;18.67;79.46;100479.65;107623;1255;108050;-67
2023/08/03 04:00:01;;;;;;;9.90;6.80;;;;;;;18.72;79.23;100481.95;107579;1254;97956;-67
2023/08/03 04:02:41;;;;;;;12.90;6.30;;;;;;;18.75;79.34;100484.04;107649;1251;97686;-67
2023/08/03 04:05:14;;;;;;;12.10;5.80;;;;;;;18.81;79.47;100486.94;107592;1251;111702;-67
2023/08/03 04:07:42;;;;;;;9.50;5.60;;;;;;;18.88;79.37;100487.87;107611;1251;109842;-67
2023/08/03 04:10:11;;;;;;;10.80;5.50;;;;;;;18.95;79.38;100491.14;107575;1254;108147;-64
2023/08/03 04:12:39;;;;;;;16.70;6.30;;;;;;;19.03;79.32;100495.05;107556;1254;97752;-66
2023/08/03 04:15:08;;;;;;;26.20;6.80;;;;;;;19.07;79.39;100495.66;107615;1251;97751;-68
2023/08/03 04:17:38;;;;;;;13.30;5.70;;;;;;;19.11;79.22;100499.38;107592;1251;111667;-69
2023/08/03 04:20:09;;;;;;;10.70;6.50;;;;;;;19.17;79.35;100497.66;107549;1253;108920;-67
2023/08/03 04:22:38;;;;;;;9.20;6.20;;;;;;;19.22;79.32;100501.52;107608;1254;107174;-69
2023/08/03 04:25:08;;;;;;;20.30;6.40;;;;;;;19.26;79.70;100501.36;107565;1254;97824;-66
2023/08/03 04:27:37;;;;;;;8.70;5.90;;;;;;;19.27;79.79;100504.65;107623;1253;97694;-70
2023/08/03 04:30:10;;;;;;;15.80;6.20;;;;;;;19.30;79.69;100504.36;107586;1252;111215;-66
2023/08/03 04:32:41;;;;;;;12.00;5.60;;;;;;;19.35;79.68;100507.98;107575;1253;109399;-67
2023/08/03 04:35:11;;;;;;;19.30;6.60;;;;;;;19.39;79.50;100508.63;107546;1255;108202;-67
2023/08/03 04:37:44;;;;;;;13.20;6.90;;;;;;;19.44;79.43;100512.52;107577;1254;97837;-67
2023/08/03 04:40:13;;;;;;;23.20;7.70;;;;;;;19.49;79.47;100509.52;107583;1253;97876;-65
2023/08/03 04:42:41;;;;;;;14.70;6.80;;;;;;;19.56;79.61;100513.66;107603;1252;112137;-69
2023/08/03 04:45:09;;;;;;;17.00;6.80;;;;;;;19.63;79.44;100518.15;107611;1251;108092;-65
2023/08/03 04:47:42;;;;;;;;;;;;;;;19.70;79.52;100523.60;107630;1251;108141;-67
2023/08/03 04:50:11;;;;;;;16.00;5.60;;;;;;;19.75;79.41;100522.63;107570;1253;97837;-66
2023/08/03 04:52:39;;;;;;;10.00;4.90;;;;;;;19.78;78.86;100521.73;107584;1254;97692;-67
2023/08/03 04:55:09;;;;;;;9.20;5.90;;;;;;;19.82;78.59;100523.73;107579;1253;111966;-68
2023/08/03 04:57:37;;;;;;;15.00;5.10;;;;;;;19.88;78.35;100525.34;107579;1254;108845;-68
2023/08/03 05:00:07;;;;;;;19.80;7.20;;;;;;;19.95;78.12;100531.81;107572;1251;108385;-66
2023/08/03 05:02:35;;;;;;;11.30;5.60;;;;;;;20.04;78.12;100526.29;107618;1251;99076;-67
2023/08/03 05:05:04;;;;;;;10.60;4.70;;;;;;;20.13;77.88;100528.66;107638;1251;98350;-67
2023/08/03 05:07:32;;;;;;;9.80;5.30;;;;;;;20.19;77.62;100527.29;107561;1251;110940;-67
2023/08/03 05:10:01;;;;;;;11.60;5.40;;;;;;;20.26;77.51;100528.33;107562;1251;111867;-70
2023/08/03 05:12:31;;;;;;;17.50;6.10;;;;;;;20.35;77.44;100531.15;107588;1251;107826;-66
2023/08/03 05:14:59;;;;;;;9.70;5.00;;;;;;;20.41;77.17;100529.91;107556;1256;97938;-67
2023/08/03 05:17:28;;;;;;;7.60;5.00;;;;;;;20.45;76.69;100529.75;107605;1251;97809;-67
2023/08/03 05:19:57;;;;;;;17.10;6.20;;;;;;;20.49;76.23;100531.48;107586;1251;111758;-68
2023/08/03 05:22:25;;;;;;;8.40;4.90;;;;;;;20.54;76.12;100529.85;107583;1251;109742;-68
2023/08/03 05:24:53;;;;;;;34.30;22.10;;;;;;;20.59;75.63;100531.49;107653;1251;107687;-68
2023/08/03 05:27:22;;;;;;;21.00;12.40;;;;;;;20.64;75.15;100527.09;107493;1253;97812;-67
2023/08/03 05:29:51;;;;;;;15.90;12.00;;;;;;;20.69;74.43;100525.90;107537;1253;98357;-66
2023/08/03 05:32:26;;;;;;;13.90;5.10;;;;;;;20.75;74.15;100524.85;107570;1251;111765;-71
2023/08/03 05:34:58;;;;;;;13.10;4.80;;;;;;;20.81;73.56;100529.02;107579;1251;110696;-71
2023/08/03 05:37:29;;;;;;;13.00;4.80;;;;;;;20.85;73.40;100531.75;107589;1251;108988;-66
2023/08/03 05:39:58;;;;;;;7.90;4.50;;;;;;;20.94;73.39;100534.48;107496;1254;97829;-67
2023/08/03 05:42:36;;;;;;;7.50;4.80;;;;;;;21.01;73.25;100537.01;107492;1254;97806;-66
2023/08/03 05:45:11;;;;;;;12.20;4.60;;;;;;;21.08;73.09;100538.80;107591;1251;110808;-66
2023/08/03 05:47:39;;;;;;;10.50;5.00;;;;;;;21.11;72.27;100548.15;107644;1255;109247;-68
2023/08/03 05:50:13;;;;;;;14.10;4.50;;;;;;;21.18;72.50;100549.77;107590;1251;108655;-67
2023/08/03 05:52:42;;;;;;;13.70;5.30;;;;;;;21.25;72.02;100542.79;107618;1251;97825;-64
2023/08/03 05:55:12;;;;;;;11.70;4.60;;;;;;;21.33;71.86;100549.94;107642;1251;98442;-68
2023/08/03 05:57:40;;;;;;;17.10;5.10;;;;;;;21.39;71.51;100550.05;107642;1255;111448;-68
2023/08/03 06:00:21;;;;;;;11.20;4.80;;;;;;;21.45;71.40;100554.34;107587;1253;108931;-67
2023/08/03 06:02:50;;;;;;;9.60;5.30;;;;;;;21.52;71.07;100552.51;107557;1253;107688;-68
2023/08/03 06:05:43;;;;;;;12.50;5.30;;;;;;;21.59;70.70;100556.13;107547;1251;97854;-68
2023/08/03 06:08:22;;;;;;;10.40;4.90;;;;;;;21.67;70.44;100557.20;107624;1251;97726;-74
2023/08/03 06:10:52;;;;;;;12.80;5.40;;;;;;;21.74;70.60;100556.17;107608;1251;111847;-68
2023/08/03 06:13:31;;;;;;;7.40;5.00;;;;;;;21.80;70.42;100557.39;107573;1254;108653;-68
2023/08/03 06:16:10;;;;;;;17.30;5.80;;;;;;;21.84;70.08;100548.55;107583;1250;108190;-67
2023/08/03 06:18:49;;;;;;;15.70;5.40;;;;;;;21.88;69.84;100549.85;107593;1251;98420;-69
2023/08/03 06:21:18;;;;;;;13.00;5.20;;;;;;;21.93;69.63;100542.38;107545;1255;97780;-68
2023/08/03 06:23:49;;;;;;;10.60;4.70;;;;;;;21.96;68.71;100545.05;107607;1253;112236;-67
2023/08/03 06:26:19;;;;;;;9.50;3.90;;;;;;;22.00;68.55;100544.45;107620;1253;108646;-66
2023/08/03 06:28:53;;;;;;;11.90;4.30;;;;;;;22.05;67.91;100542.48;107628;1253;108313;-68
2023/08/03 06:31:32;;;;;;;11.50;5.00;;;;;;;22.11;68.23;100544.23;107569;1251;97818;-63
2023/08/03 06:34:02;;;;;;;7.90;4.70;;;;;;;22.17;68.21;100545.59;107636;1251;98372;-67
2023/08/03 06:36:30;;;;;;;10.00;4.20;;;;;;;22.23;68.00;100546.43;107633;1254;111410;-68
2023/08/03 06:38:59;;;;;;;9.50;5.10;;;;;;;22.27;67.89;100548.69;107541;1256;109362;-69
2023/08/03 06:41:30;;;;;;;9.10;5.00;;;;;;;22.32;67.80;100545.45;107540;1251;107794;-67
2023/08/03 06:44:00;;;;;;;11.70;5.00;;;;;;;22.36;67.77;100544.13;107608;1251;97809;-68
2023/08/03 06:46:28;;;;;;;8.60;4.70;;;;;;;22.39;67.90;100545.51;107597;1251;97790;-66
2023/08/03 06:48:57;;;;;;;7.30;4.40;;;;;;;22.43;68.07;100549.18;107609;1254;111979;-69
2023/08/03 06:51:26;;;;;;;12.70;5.20;;;;;;;22.48;68.04;100546.16;107615;1254;109257;-67
2023/08/03 06:53:59;;;;;;;10.80;4.80;;;;;;;22.54;68.02;100546.68;107575;1254;108243;-68
2023/08/03 06:56:28;;;;;;;13.60;5.00;;;;;;;22.59;67.76;100545.45;107590;1252;97844;-67
2023/08/03 06:58:56;;;;;;;19.10;5.40;;;;;;;22.68;67.35;100548.16;107543;1254;98365;-66
2023/08/03 07:01:24;;;;;;;9.80;4.60;;;;;;;22.78;66.91;100548.05;107546;1251;112041;-68
2023/08/03 07:03:53;;;;;;;9.10;4.80;;;;;;;22.86;66.33;100543.93;107597;1251;109247;-72
2023/08/03 07:06:23;;;;;;;9.60;4.50;;;;;;;22.95;66.02;100544.82;107528;1254;107537;-67
2023/08/03 07:08:51;;;;;;;11.80;3.90;;;;;;;23.04;66.05;100541.73;107622;1252;97897;-68
2023/08/03 07:11:19;;;;;;;13.00;3.80;;;;;;;23.13;65.65;100547.09;107591;1254;97802;-68
2023/08/03 07:13:48;;;;;;;7.80;4.10;;;;;;;23.20;64.45;100542.61;107569;1251;112066;-68
2023/08/03 07:16:16;;;;;;;5.80;3.50;;;;;;;23.27;63.86;100542.24;107538;1255;109283;-70
2023/08/03 07:18:44;;;;;;;5.20;3.30;;;;;;;23.34;63.18;100538.35;107605;1251;108097;-66
2023/08/03 07:21:13;;;;;;;9.10;3.60;;;;;;;23.41;62.80;100534.81;107564;1251;97860;-68
2023/08/03 07:23:41;;;;;;;10.40;3.40;;;;;;;23.48;62.28;100537.61;107617;1251;97806;-67
2023/08/03 07:26:15;;;;;;;8.80;3.50;;;;;;;23.56;61.53;100535.54;107576;1254;111990;-67
2023/08/03 07:28:43;;;;;;;11.90;3.30;;;;;;;23.63;60.87;100531.90;107652;1254;109040;-68
2023/08/03 07:31:15;;;;;;;7.40;3.20;;;;;;;23.69;61.09;100535.71;107649;1251;107830;-68
2023/08/03 07:33:44;;;;;;;4.90;2.90;;;;;;;23.77;60.88;100537.69;107567;1251;97816;-67
2023/08/03 07:36:19;;;;;;;6.80;3.30;;;;;;;23.84;60.39;100537.41;107655;1251;97702;-69
2023/08/03 07:38:52;;;;;;;5.60;3.10;;;;;;;23.91;59.23;100535.61;107574;1251;112264;-65
2023/08/03 07:41:20;;;;;;;10.30;3.60;;;;;;;23.98;58.82;100532.86;107618;1251;108310;-67
2023/08/03 07:43:52;;;;;;;3.40;3.10;;;;;;;24.06;58.45;100526.96;107616;1254;108765;-67
2023/08/03 07:46:22;;;;;;;11.60;2.80;;;;;;;24.13;58.77;100522.69;107569;1254;97720;-71
2023/08/03 07:48:51;;;;;;;3.70;3.10;;;;;;;24.19;58.48;100522.30;107590;1255;98369;-67
2023/08/03 07:51:20;;;;;;;9.70;3.30;;;;;;;24.27;57.73;100525.61;107562;1251;112274;-70
2023/08/03 07:53:51;;;;;;;4.20;2.90;;;;;;;24.36;57.97;100525.19;107617;1251;108647;-66
2023/08/03 07:56:21;;;;;;;4.10;3.00;;;;;;;24.43;57.39;100523.45;107599;1251;107150;-67
2023/08/03 07:58:51;;;;;;;2.90;2.60;;;;;;;24.53;55.77;100525.91;107554;1251;97863;-68
2023/08/03 08:01:20;;;;;;;5.10;2.80;;;;;;;24.61;55.04;100521.17;107620;1254;98367;-67
2023/08/03 08:03:50;;;;;;;5.20;2.80;;;;;;;24.68;55.18;100515.33;107613;1251;110693;-68
2023/08/03 08:06:20;;;;;;;7.60;3.20;;;;;;;24.78;55.08;100518.69;107650;1253;110006;-68
2023/08/03 08:08:50;;;;;;;3.40;3.00;;;;;;;24.86;54.59;100512.95;107609;1254;107676;-69
2023/08/03 08:11:19;;;;;;;4.00;3.00;;;;;;;24.95;53.83;100516.74;107532;1251;97872;-68
2023/08/03 08:13:47;;;;;;;4.60;2.70;;;;;;;25.03;53.46;100508.48;107672;1254;97717;-68
2023/08/03 08:16:16;;;;;;;3.80;3.10;;;;;;;25.12;53.77;100512.69;107598;1251;111532;-67
2023/08/03 08:18:45;;;;;;;6.90;2.90;;;;;;;25.18;53.50;100508.67;107653;1251;109632;-70
2023/08/03 08:21:14;;;;;;;5.00;3.00;;;;;;;25.26;54.06;100507.10;107567;1251;108745;-67
2023/08/03 08:23:42;;;;;;;10.30;3.50;;;;;;;25.35;53.39;100503.40;107599;1253;97834;-69
2023/08/03 08:26:16;;;;;;;4.40;2.70;;;;;;;25.44;52.75;100506.65;107631;1251;97908;-71
2023/08/03 08:28:46;;;;;;;7.70;2.50;;;;;;;25.55;52.48;100504.45;107598;1254;111918;-68
2023/08/03 08:31:32;;;;;;;7.90;2.90;;;;;;;25.69;52.00;100502.55;107594;1254;109466;-67
2023/08/03 08:34:20;;;;;;;4.10;2.90;;;;;;;25.78;51.91;100503.07;107573;1254;107785;-66
2023/08/03 08:36:51;;;;;;;5.50;2.50;;;;;;;25.85;49.55;100508.33;107604;1256;97840;-67
2023/08/03 08:39:20;;;;;;;4.10;2.40;;;;;;;25.97;48.30;100510.27;107647;1251;97960;-69
2023/08/03 08:41:48;;;;;;;10.00;2.80;;;;;;;26.06;48.10;100510.50;107623;1256;112233;-68
2023/08/03 08:44:17;;;;;;;4.60;2.40;;;;;;;26.16;48.35;100510.77;107530;1254;110242;-67
2023/08/03 08:46:45;;;;;;;3.80;2.10;;;;;;;26.27;48.18;100508.61;107572;1254;109350;-68
2023/08/03 08:49:14;;;;;;;3.90;2.40;;;;;;;26.42;47.76;100504.91;107570;1254;97896;-69
2023/08/03 08:51:58;;;;;;;2.50;1.70;;;;;;;26.58;46.54;100513.73;107664;1254;97698;-67
2023/08/03 08:54:31;;;;;;;5.80;1.80;;;;;;;26.72;45.68;100517.55;107666;1253;111824;-68
2023/08/03 08:57:03;;;;;;;3.60;2.20;;;;;;;26.85;46.28;100507.04;107630;1253;109897;-67
2023/08/03 08:59:57;;;;;;;4.70;1.90;;;;;;;27.05;45.69;100512.85;107581;1256;107939;-68
2023/08/03 09:02:26;;;;;;;3.40;2.30;;;;;;;27.21;45.00;100509.49;107591;1251;98095;-68
2023/08/03 09:04:58;;;;;;;5.00;1.90;;;;;;;27.36;44.57;100510.15;107656;1251;98155;-68
2023/08/03 09:07:26;;;;;;;5.30;2.50;;;;;;;27.51;43.58;100504.92;107691;1251;110992;-73
2023/08/03 09:10:03;;;;;;;2.50;2.10;;;;;;;27.64;42.54;100503.36;107564;1254;108566;-69
2023/08/03 09:12:32;;;;;;;3.10;2.20;;;;;;;27.79;42.80;100493.70;107634;1256;106991;-69
2023/08/03 09:15:01;;;;;;;4.90;2.00;;;;;;;27.94;41.96;100497.59;107583;1256;97902;-69
2023/08/03 09:17:29;;;;;;;4.00;2.20;;;;;;;28.10;40.90;100497.71;107669;1254;98354;-68
2023/08/03 09:19:57;;;;;;;6.70;2.20;;;;;;;28.28;41.47;100496.52;107680;1251;112348;-68
2023/08/03 09:22:29;;;;;;;3.60;1.80;;;;;;;28.52;42.45;100489.89;107610;1251;108805;-68
2023/08/03 09:25:08;;;;;;;7.30;1.90;;;;;;;28.81;40.83;100494.97;107585;1254;108574;-68
2023/08/03 09:27:46;;;;;;;2.10;1.90;;;;;;;29.12;39.82;100497.73;107611;1254;97838;-69
2023/08/03 09:30:19;;;;;;;4.20;1.80;;;;;;;29.51;38.03;100497.85;107603;1255;98385;-68
2023/08/03 09:32:48;;;;;;;2.60;1.90;;;;;;;29.93;36.78;100492.13;107533;1254;111912;-67
2023/08/03 09:35:24;;;;;;;3.50;2.00;;;;;;;30.42;36.79;100489.02;107629;1254;108348;-67
2023/08/03 09:37:54;;;;;;;2.10;1.70;;;;;;;30.94;37.06;100481.13;107553;1254;108264;-70
2023/08/03 09:40:24;;;;;;;7.90;2.00;;;;;;;31.49;36.26;100478.95;107562;1254;97731;-69
2023/08/03 09:42:55;;;;;;;2.20;1.70;;;;;;;32.00;33.66;100482.34;107679;1254;97831;-67
2023/08/03 09:45:24;;;;;;;4.40;1.80;;;;;;;32.43;33.31;100483.17;107191;1256;570697;-64
2023/08/03 09:47:56;;;;;;;5.50;2.20;;;;;;;32.87;33.15;100478.58;107609;1254;109390;-67
2023/08/03 09:50:29;;;;;;;2.70;1.60;;;;;;;33.28;32.19;100481.51;107550;1254;108624;-67
2023/08/03 09:53:02;;;;;;;3.00;1.90;;;;;;;33.63;30.72;100478.30;107517;1254;97936;-67
2023/08/03 09:55:53;;;;;;;5.00;1.90;;;;;;;33.95;31.22;100477.38;107589;1255;97841;-70
2023/08/03 09:58:39;;;;;;;2.00;1.20;;;;;;;34.23;28.25;100473.67;107617;1254;112185;-67
2023/08/03 10:01:12;;;;;;;6.40;2.10;;;;;;;34.41;28.18;100469.05;107634;1254;109833;-66
2023/08/03 10:03:44;;;;;;;5.00;1.40;;;;;;;34.61;28.11;100466.98;107628;1253;108582;-68
2023/08/03 10:06:17;;;;;;;;;;;;;;;34.74;28.37;100465.80;107643;1254;95771;-69
2023/08/03 10:08:45;;;;;;;4.90;1.40;;;;;;;35.09;27.12;100466.47;107585;1254;97742;-67
2023/08/03 10:11:14;;;;;;;4.50;1.50;;;;;;;35.42;27.08;100463.08;107551;1256;112004;-67
2023/08/03 10:13:46;;;;;;;1.90;1.70;;;;;;;35.82;25.85;100462.61;107549;1253;110716;-71
2023/08/03 10:16:16;;;;;;;1.70;1.30;;;;;;;36.29;25.12;100456.55;107594;1255;107551;-67
2023/08/03 10:18:46;;;;;;;2.90;1.10;;;;;;;36.82;25.05;100461.27;107603;1256;97841;-66
2023/08/03 10:21:29;;;;;;;2.90;1.80;;;;;;;37.39;25.15;100453.15;107645;1256;97720;-66
2023/08/03 10:24:18;;;;;;;3.80;1.30;;;;;;;37.85;23.93;100450.77;107588;1254;111962;-67
2023/08/03 10:26:54;;;;;;;1.20;1.00;;;;;;;38.09;22.44;100450.55;107570;1254;109490;-67
2023/08/03 10:29:51;;;;;;;3.70;1.20;;;;;;;38.27;21.59;100446.69;107547;1256;108154;-66
2023/08/03 10:32:23;;;;;;;2.00;1.10;;;;;;;38.68;20.95;100447.60;107597;1257;97837;-67
2023/08/03 10:34:52;;;;;;;1.50;1.00;;;;;;;39.03;21.51;100445.19;107609;1253;97726;-66
2023/08/03 10:37:21;;;;;;;1.40;1.10;;;;;;;39.35;20.78;100433.80;107588;1256;111811;-67
2023/08/03 10:39:59;;;;;;;2.00;1.00;;;;;;;39.73;20.78;100434.11;107527;1255;110695;-68
2023/08/03 10:42:35;;;;;;;4.20;1.20;;;;;;;40.15;20.29;100429.64;107566;1253;107421;-66
2023/08/03 10:45:37;;;;;;;1.20;1.00;;;;;;;40.41;19.28;100425.20;107568;1257;98027;-66
2023/08/03 10:48:36;;;;;;;2.70;0.90;;;;;;;40.62;20.12;100414.98;107307;1254;98727;-68
2023/08/03 10:51:06;;;;;;;3.70;1.30;;;;;;;41.24;19.61;100421.66;107554;1254;111949;-66
2023/08/03 10:53:40;;;;;;;3.40;0.80;;;;;;;41.68;19.04;100414.48;107647;1256;108651;-67
2023/08/03 10:56:10;;;;;;;1.10;0.70;;;;;;;42.10;18.65;100409.91;107537;1254;108276;-67
2023/08/03 10:58:57;;;;;;;2.10;0.80;;;;;;;42.52;18.27;100406.20;107596;1253;98525;-67
2023/08/03 11:01:25;;;;;;;3.60;1.00;;;;;;;42.76;17.37;100400.46;107600;1254;98351;-67
2023/08/03 11:03:54;;;;;;;5.20;1.10;;;;;;;43.02;16.70;100400.13;107615;1254;110841;-67
2023/08/03 11:06:24;;;;;;;2.60;1.00;;;;;;;43.03;16.44;100399.42;107568;1257;109691;-66
2023/08/03 11:08:54;;;;;;;6.10;1.20;;;;;;;43.08;16.83;100398.48;107583;1254;108167;-67
2023/08/03 11:11:23;;;;;;;2.50;1.00;;;;;;;43.28;16.79;100403.83;107648;1251;97813;-67
2023/08/03 11:13:52;;;;;;;11.30;1.10;;;;;;;43.45;17.02;100404.36;107577;1257;98347;-67
2023/08/03 11:16:25;;;;;;;3.00;1.20;;;;;;;43.77;17.38;100403.86;107574;1254;112122;-69
2023/08/03 11:18:54;;;;;;;4.20;0.80;;;;;;;44.23;16.97;100400.34;107589;1251;108349;-70
2023/08/03 11:21:22;;;;;;;3.50;1.00;;;;;;;44.46;16.23;100387.90;107522;1251;108037;-66
2023/08/03 11:23:51;;;;;;;2.50;1.20;;;;;;;44.60;16.89;100390.67;107525;1251;97844;-70
2023/08/03 11:26:23;;;;;;;3.60;0.90;;;;;;;45.02;17.34;100388.20;107508;1255;97703;-70